Portada
METAR-TAF:

METAR-TAF

Aeroports :

Biak, Indonèsia

latitud: 01-11S, longitud: 136-07E, altitud: 11 m

Observació

L'informe es va fer fa 39 minuts, a les 14:00 UTC
Vent calma
Temperatura 26°C
Humitat 94%
Pressió 1009 hPa
Visibilitat 10 km o més
Escasses núvols a una alçada de 1800 ft

METAR: WABB 261400Z 00000KT 9999 FEW018 26/25 Q1009 NOSIG

Hora: 21:39 (14:39 UTC)

Pronòstic

L'informe es va fer fa 3 hores i 39 minuts, a les 11:00 UTC
Pronòstic vàlid del 26 a les 12 UTC al 27 a les 18 UTC
Vent 4 kt del Nord-Oest
Visibilitat 10 km o més
Núvols disperses a una alçada de 1800 ft
Evolucionant progressivament
l' 26 a les 22 UTC al 27 a les 00 UTC
Vent 5 kt del Oest

TAF: WABB 261100Z 2612/2718 32004KT 9999 SCT018 BECMG 2622/2700 27005KT

Observacions i pronòstics meteorològics de més de 4000 aeroports (METAR i TAF).

Les estacions disponibles són els punts grocs i vermells al mapa.

Posi el ratolí al punt desitjat per veure el nom de l'estació.

Feu clic per veure les observacions i els pronòstics meteorològics.

Per canviar el mapa: feu clic els botons verds amb una creu de color negre per apropar; al botó verd amb un guió per allunyar la imatge; o en les fletxes verdes per a mapes adjacents.


METAR-TAF: